Purdys Mills, New York
Current Conditions -  °F | °C
As of 10:53 PM on Thursday 27 Nov 2014 (Local Time) from KPBG Reporting Station
Overcast Overcast  
Wind Chill: -3°   Ceiling: 3900
Heat Index: -3°   Visibility: 10mi
Dew Point: -5°   Wind: 3mph
Humidity: 88%   Direction: 300°WNW
Pressure: 30.05"   Gusts: NA
Location:  44.8543°N, 73.663°W
Report Text: KPBG 280353Z AUTO 30003KT 10SM OVC039 M03/M05 A3005 RMK AO2 SLP179 T10331050
Loading
Personal Weather Stations






























Interactive Weather Map New forecast layout! Learn more

10-Day Weather Forecast

Advertisements
Track Severe Weather on mobile